sensor_id;sensor_type;location;lat;lon;timestamp;temperature;humidity
63960;DHT22;50136;51.374;0.096;2023-04-01T00:08:37;10.50;99.90
63960;DHT22;50136;51.374;0.096;2023-04-01T00:18:39;10.50;99.90
63960;DHT22;50136;51.374;0.096;2023-04-01T00:28:43;10.50;99.90
63960;DHT22;50136;51.374;0.096;2023-04-01T00:38:45;10.40;99.90
63960;DHT22;50136;51.374;0.096;2023-04-01T00:48:51;10.50;99.90
63960;DHT22;50136;51.374;0.096;2023-04-01T00:58:58;10.50;99.90
63960;DHT22;50136;51.374;0.096;2023-04-01T01:09:10;10.40;99.90
63960;DHT22;50136;51.374;0.096;2023-04-01T01:19:31;10.40;99.90
63960;DHT22;50136;51.374;0.096;2023-04-01T01:29:58;10.40;99.90
63960;DHT22;50136;51.374;0.096;2023-04-01T01:40:06;10.30;99.90
63960;DHT22;50136;51.374;0.096;2023-04-01T01:50:09;10.40;99.90
63960;DHT22;50136;51.374;0.096;2023-04-01T02:00:15;10.20;99.90
63960;DHT22;50136;51.374;0.096;2023-04-01T02:10:18;10.10;99.90
63960;DHT22;50136;51.374;0.096;2023-04-01T02:20:23;10.00;99.90
63960;DHT22;50136;51.374;0.096;2023-04-01T02:30:27;9.90;99.90
63960;DHT22;50136;51.374;0.096;2023-04-01T02:40:41;9.90;99.90
63960;DHT22;50136;51.374;0.096;2023-04-01T02:50:43;9.80;99.90
63960;DHT22;50136;51.374;0.096;2023-04-01T03:00:47;9.70;99.90
63960;DHT22;50136;51.374;0.096;2023-04-01T03:10:49;9.80;99.90
63960;DHT22;50136;51.374;0.096;2023-04-01T03:20:52;9.80;99.90
63960;DHT22;50136;51.374;0.096;2023-04-01T03:30:54;9.80;99.90
63960;DHT22;50136;51.374;0.096;2023-04-01T03:40:57;9.80;99.90
63960;DHT22;50136;51.374;0.096;2023-04-01T03:50:59;9.80;99.90
63960;DHT22;50136;51.374;0.096;2023-04-01T04:01:03;9.80;99.90
63960;DHT22;50136;51.374;0.096;2023-04-01T04:11:05;9.80;99.90
63960;DHT22;50136;51.374;0.096;2023-04-01T04:21:12;9.70;99.90
63960;DHT22;50136;51.374;0.096;2023-04-01T04:31:18;9.60;99.90
63960;DHT22;50136;51.374;0.096;2023-04-01T04:41:22;9.60;99.90
63960;DHT22;50136;51.374;0.096;2023-04-01T04:51:24;9.50;99.90
63960;DHT22;50136;51.374;0.096;2023-04-01T05:01:27;9.50;99.90
63960;DHT22;50136;51.374;0.096;2023-04-01T05:11:29;9.40;99.90
63960;DHT22;50136;51.374;0.096;2023-04-01T05:21:34;9.40;99.90
63960;DHT22;50136;51.374;0.096;2023-04-01T05:31:36;9.50;99.90
63960;DHT22;50136;51.374;0.096;2023-04-01T05:41:39;9.40;99.90
63960;DHT22;50136;51.374;0.096;2023-04-01T05:51:41;9.40;99.90
63960;DHT22;50136;51.374;0.096;2023-04-01T06:01:44;9.20;99.90
63960;DHT22;50136;51.374;0.096;2023-04-01T06:12:08;9.20;99.90
63960;DHT22;50136;51.374;0.096;2023-04-01T06:22:30;9.20;99.90
63960;DHT22;50136;51.374;0.096;2023-04-01T06:32:48;9.20;99.90
63960;DHT22;50136;51.374;0.096;2023-04-01T06:43:00;9.30;99.90
63960;DHT22;50136;51.374;0.096;2023-04-01T06:53:10;9.20;99.90
63960;DHT22;50136;51.374;0.096;2023-04-01T07:03:20;9.30;99.90
63960;DHT22;50136;51.374;0.096;2023-04-01T07:13:27;9.20;99.90
63960;DHT22;50136;51.374;0.096;2023-04-01T07:23:38;9.20;99.90
63960;DHT22;50136;51.374;0.096;2023-04-01T07:33:48;9.30;99.90
63960;DHT22;50136;51.374;0.096;2023-04-01T07:44:02;9.50;99.90
63960;DHT22;50136;51.374;0.096;2023-04-01T07:54:11;9.40;99.90
63960;DHT22;50136;51.374;0.096;2023-04-01T08:04:35;9.30;99.90
63960;DHT22;50136;51.374;0.096;2023-04-01T08:14:50;9.20;99.90
63960;DHT22;50136;51.374;0.096;2023-04-01T08:24:58;9.10;99.90
63960;DHT22;50136;51.374;0.096;2023-04-01T08:35:08;9.20;99.90
63960;DHT22;50136;51.374;0.096;2023-04-01T08:45:48;9.10;99.90
63960;DHT22;50136;51.374;0.096;2023-04-01T08:56:04;9.40;99.90
63960;DHT22;50136;51.374;0.096;2023-04-01T09:06:29;9.40;99.90
63960;DHT22;50136;51.374;0.096;2023-04-01T09:17:01;9.60;99.90
63960;DHT22;50136;51.374;0.096;2023-04-01T09:27:18;9.80;99.90
63960;DHT22;50136;51.374;0.096;2023-04-01T09:37:29;9.70;99.90
63960;DHT22;50136;51.374;0.096;2023-04-01T09:47:51;9.80;99.90
63960;DHT22;50136;51.374;0.096;2023-04-01T09:58:16;10.00;99.90
63960;DHT22;50136;51.374;0.096;2023-04-01T10:08:48;10.00;99.90
63960;DHT22;50136;51.374;0.096;2023-04-01T10:19:17;10.00;99.90
63960;DHT22;50136;51.374;0.096;2023-04-01T10:30:01;10.20;99.90
63960;DHT22;50136;51.374;0.096;2023-04-01T10:40:38;10.30;99.90
63960;DHT22;50136;51.374;0.096;2023-04-01T10:51:17;10.40;99.90
63960;DHT22;50136;51.374;0.096;2023-04-01T11:01:36;10.30;99.90
63960;DHT22;50136;51.374;0.096;2023-04-01T11:34:16;10.60;99.90
63960;DHT22;50136;51.374;0.096;2023-04-01T11:44:26;10.40;99.90
63960;DHT22;50136;51.374;0.096;2023-04-01T11:54:43;10.20;99.90
63960;DHT22;50136;51.374;0.096;2023-04-01T12:04:51;10.60;99.90
63960;DHT22;50136;51.374;0.096;2023-04-01T12:15:10;10.40;99.90
63960;DHT22;50136;51.374;0.096;2023-04-01T12:25:34;10.80;99.90
63960;DHT22;50136;51.374;0.096;2023-04-01T12:35:52;11.10;99.90
63960;DHT22;50136;51.374;0.096;2023-04-01T12:46:04;10.80;99.90
63960;DHT22;50136;51.374;0.096;2023-04-01T12:56:13;10.60;99.90
63960;DHT22;50136;51.374;0.096;2023-04-01T13:17:35;11.00;99.90
63960;DHT22;50136;51.374;0.096;2023-04-01T13:27:42;11.10;99.90
63960;DHT22;50136;51.374;0.096;2023-04-01T14:00:10;11.80;99.90
63960;DHT22;50136;51.374;0.096;2023-04-01T14:10:20;11.60;99.90
63960;DHT22;50136;51.374;0.096;2023-04-01T14:20:46;11.50;99.90
63960;DHT22;50136;51.374;0.096;2023-04-01T14:42:28;11.50;99.90
63960;DHT22;50136;51.374;0.096;2023-04-01T14:53:11;11.40;99.90
63960;DHT22;50136;51.374;0.096;2023-04-01T15:03:26;11.50;99.90
63960;DHT22;50136;51.374;0.096;2023-04-01T15:13:53;11.40;99.90
63960;DHT22;50136;51.374;0.096;2023-04-01T15:24:08;11.10;99.90
63960;DHT22;50136;51.374;0.096;2023-04-01T15:34:25;11.10;99.90
63960;DHT22;50136;51.374;0.096;2023-04-01T15:44:53;10.90;99.90
63960;DHT22;50136;51.374;0.096;2023-04-01T15:55:17;11.00;99.90
63960;DHT22;50136;51.374;0.096;2023-04-01T16:05:35;10.90;99.90
63960;DHT22;50136;51.374;0.096;2023-04-01T16:27:02;10.60;99.90
63960;DHT22;50136;51.374;0.096;2023-04-01T16:37:10;10.30;99.90
63960;DHT22;50136;51.374;0.096;2023-04-01T16:47:17;10.20;99.90
63960;DHT22;50136;51.374;0.096;2023-04-01T16:57:30;9.90;99.90
63960;DHT22;50136;51.374;0.096;2023-04-01T17:07:46;9.80;99.90
63960;DHT22;50136;51.374;0.096;2023-04-01T17:28:44;9.90;99.90
63960;DHT22;50136;51.374;0.096;2023-04-01T17:38:57;9.90;99.90
63960;DHT22;50136;51.374;0.096;2023-04-01T17:49:16;10.00;99.90
63960;DHT22;50136;51.374;0.096;2023-04-01T17:59:28;9.90;99.90
63960;DHT22;50136;51.374;0.096;2023-04-01T18:09:46;9.80;99.90
63960;DHT22;50136;51.374;0.096;2023-04-01T18:30:36;9.90;99.90
63960;DHT22;50136;51.374;0.096;2023-04-01T18:40:43;9.80;99.90
63960;DHT22;50136;51.374;0.096;2023-04-01T18:50:53;9.70;99.90
63960;DHT22;50136;51.374;0.096;2023-04-01T19:01:12;9.70;99.90
63960;DHT22;50136;51.374;0.096;2023-04-01T19:11:25;9.60;99.90
63960;DHT22;50136;51.374;0.096;2023-04-01T19:21:32;9.50;99.90
63960;DHT22;50136;51.374;0.096;2023-04-01T19:31:51;9.40;99.90
63960;DHT22;50136;51.374;0.096;2023-04-01T19:42:03;9.00;99.90
63960;DHT22;50136;51.374;0.096;2023-04-01T19:52:13;8.80;99.90
63960;DHT22;50136;51.374;0.096;2023-04-01T20:02:37;8.70;99.90
63960;DHT22;50136;51.374;0.096;2023-04-01T20:12:49;8.70;99.90
63960;DHT22;50136;51.374;0.096;2023-04-01T20:23:06;8.60;99.90
63960;DHT22;50136;51.374;0.096;2023-04-01T20:43:59;8.60;99.90
63960;DHT22;50136;51.374;0.096;2023-04-01T20:54:23;8.60;99.90
63960;DHT22;50136;51.374;0.096;2023-04-01T21:04:36;8.50;99.90
63960;DHT22;50136;51.374;0.096;2023-04-01T21:15:10;8.60;99.90
63960;DHT22;50136;51.374;0.096;2023-04-01T21:25:26;8.50;99.90
63960;DHT22;50136;51.374;0.096;2023-04-01T21:35:36;8.30;99.90
63960;DHT22;50136;51.374;0.096;2023-04-01T21:45:57;8.20;99.90
63960;DHT22;50136;51.374;0.096;2023-04-01T22:06:47;8.30;99.90
63960;DHT22;50136;51.374;0.096;2023-04-01T22:16:56;8.30;99.90
63960;DHT22;50136;51.374;0.096;2023-04-01T22:27:03;8.20;99.90
63960;DHT22;50136;51.374;0.096;2023-04-01T22:37:15;8.20;99.90
63960;DHT22;50136;51.374;0.096;2023-04-01T22:47:30;8.20;99.90
63960;DHT22;50136;51.374;0.096;2023-04-01T22:57:40;8.20;99.90
63960;DHT22;50136;51.374;0.096;2023-04-01T23:18:32;8.10;99.90
63960;DHT22;50136;51.374;0.096;2023-04-01T23:28:43;8.10;99.90
63960;DHT22;50136;51.374;0.096;2023-04-01T23:38:49;7.90;99.90
63960;DHT22;50136;51.374;0.096;2023-04-01T23:48:52;7.80;99.90
63960;DHT22;50136;51.374;0.096;2023-04-01T23:58:56;7.80;99.90
